Time;durP1;ratioP1;P1;durP2;ratioP2;P2;SDS_P1;SDS_P2;PMS_P1;PMS_P2;Temp;Humidity;BMP_temperature;BMP_pressure;BME280_temperature;BME280_humidity;BME280_pressure;Samples;Min_cycle;Max_cycle;Signal;HPM_P1;HPM_P2
2022/09/30 00:01:26;;;;;;;7.60;6.80;;;;;;;8.56;87.41;100029.13;107264;1274;61911;-79
2022/09/30 00:03:54;;;;;;;8.10;6.60;;;;;;;8.55;87.14;100032.10;107344;1274;59695;-79
2022/09/30 00:06:22;;;;;;;7.80;6.60;;;;;;;8.52;87.26;100034.23;107819;1274;76200;-79
2022/09/30 00:08:49;;;;;;;7.50;6.70;;;;;;;8.50;87.27;100034.77;107473;1274;72590;-79
2022/09/30 00:11:19;;;;;;;8.30;7.40;;;;;;;8.49;87.13;100038.62;107728;1273;74142;-79
2022/09/30 00:13:48;;;;;;;8.00;7.00;;;;;;;8.46;87.02;100037.52;108077;1274;62695;-80
2022/09/30 00:16:16;;;;;;;7.60;6.50;;;;;;;8.43;87.07;100036.35;107371;1274;60479;-79
2022/09/30 00:18:43;;;;;;;9.00;6.80;;;;;;;8.39;87.11;100035.36;107369;1273;74984;-79
2022/09/30 00:21:12;;;;;;;7.90;6.60;;;;;;;8.33;87.18;100038.08;107556;1274;72548;-79
2022/09/30 00:23:39;;;;;;;8.60;7.30;;;;;;;8.27;87.33;100041.45;107396;1274;74299;-79
2022/09/30 00:26:16;;;;;;;9.10;7.90;;;;;;;8.18;88.11;100041.83;107802;1277;62823;-79
2022/09/30 00:28:43;;;;;;;11.10;8.00;;;;;;;8.08;88.96;100046.03;107888;1274;59598;-79
2022/09/30 00:31:12;;;;;;;8.70;7.70;;;;;;;8.03;89.07;100047.23;107426;1274;73984;-79
2022/09/30 00:33:40;;;;;;;10.80;8.10;;;;;;;7.97;89.27;100047.89;107894;1274;71684;-79
2022/09/30 00:36:10;;;;;;;9.80;8.10;;;;;;;7.92;89.45;100043.83;107322;1273;72872;-79
2022/09/30 00:38:37;;;;;;;10.00;8.60;;;;;;;7.88;89.36;100047.64;107607;1274;60905;-79
2022/09/30 00:41:04;;;;;;;9.00;8.10;;;;;;;7.85;89.61;100050.16;107261;1274;61094;-79
2022/09/30 00:43:50;;;;;;;9.60;7.80;;;;;;;7.81;89.81;100053.42;107315;1274;74825;-79
2022/09/30 00:46:37;;;;;;;10.90;8.30;;;;;;;7.78;89.84;100055.30;108153;1273;72361;-79
2022/09/30 00:49:20;;;;;;;8.90;8.00;;;;;;;7.76;89.80;100052.69;107753;1274;72964;-80
2022/09/30 00:51:53;;;;;;;12.30;8.70;;;;;;;7.74;89.79;100050.77;107879;1273;60222;-79
2022/09/30 00:54:28;;;;;;;9.80;8.70;;;;;;;7.72;89.35;100050.53;107540;1274;61204;-79
2022/09/30 00:56:58;;;;;;;11.40;9.10;;;;;;;7.70;89.61;100052.52;107435;1274;75119;-79
2022/09/30 00:59:28;;;;;;;10.60;9.00;;;;;;;7.68;89.80;100053.27;107276;1274;72935;-79
2022/09/30 01:01:55;;;;;;;9.60;8.60;;;;;;;7.65;89.73;100054.41;107274;1274;74003;-78
2022/09/30 01:04:24;;;;;;;9.90;8.70;;;;;;;7.63;89.86;100056.44;108067;1273;60158;-79
2022/09/30 01:06:51;;;;;;;10.00;8.90;;;;;;;7.60;89.76;100055.52;107708;1273;60515;-78
2022/09/30 01:09:19;;;;;;;12.10;8.70;;;;;;;7.58;89.54;100056.27;107598;1277;74829;-79
2022/09/30 01:11:46;;;;;;;10.40;9.00;;;;;;;7.55;89.77;100058.34;107437;1274;71078;-78
2022/09/30 01:14:22;;;;;;;10.20;9.20;;;;;;;7.52;89.92;100055.38;107701;1274;74258;-79
2022/09/30 01:17:02;;;;;;;12.30;9.10;;;;;;;7.49;90.27;100062.03;107525;1274;62504;-79
2022/09/30 01:20:01;;;;;;;10.50;9.40;;;;;;;7.47;90.15;100058.27;107423;1274;61528;-79
2022/09/30 01:22:43;;;;;;;11.50;9.40;;;;;;;7.44;90.45;100058.88;107452;1274;75912;-78
2022/09/30 01:25:18;;;;;;;12.40;9.70;;;;;;;7.42;90.60;100054.41;107725;1274;72448;-79
2022/09/30 01:28:16;;;;;;;11.00;9.70;;;;;;;7.39;90.80;100055.41;107442;1274;73458;-78
2022/09/30 01:31:13;;;;;;;10.50;9.10;;;;;;;7.36;90.85;100059.60;107678;1274;63327;-79
2022/09/30 01:34:03;;;;;;;12.10;9.90;;;;;;;7.32;91.31;100057.87;107571;1274;60635;-79
2022/09/30 01:37:06;;;;;;;11.20;9.70;;;;;;;7.30;91.79;100057.20;107280;1276;74816;-78
2022/09/30 01:39:51;;;;;;;10.10;9.10;;;;;;;7.29;91.86;100055.50;107266;1274;71789;-78
2022/09/30 01:42:51;;;;;;;10.60;9.50;;;;;;;7.25;91.23;100048.80;107660;1274;71740;-79
2022/09/30 01:45:32;;;;;;;10.30;9.20;;;;;;;7.23;90.89;100051.48;108031;1274;63676;-79
2022/09/30 01:48:17;;;;;;;11.40;9.50;;;;;;;7.22;91.00;100052.38;107201;1274;60751;-78
2022/09/30 01:51:04;;;;;;;10.60;9.50;;;;;;;7.19;90.75;100052.52;107394;1273;76218;-79
2022/09/30 01:54:01;;;;;;;10.70;9.60;;;;;;;7.17;90.79;100056.81;107399;1274;71278;-79
2022/09/30 01:56:36;;;;;;;10.60;9.40;;;;;;;7.12;90.80;100056.14;107377;1274;72686;-79
2022/09/30 01:59:24;;;;;;;11.10;10.00;;;;;;;7.07;90.80;100054.48;107449;1274;61596;-79
2022/09/30 02:01:57;;;;;;;11.30;10.10;;;;;;;7.03;90.97;100052.92;108095;1274;60579;-78
2022/09/30 02:04:47;;;;;;;10.80;9.50;;;;;;;6.99;90.87;100058.43;107768;1276;76183;-78
2022/09/30 02:07:24;;;;;;;11.30;9.90;;;;;;;6.95;91.19;100059.16;107739;1273;72431;-78
2022/09/30 02:09:53;;;;;;;12.30;10.40;;;;;;;6.91;91.26;100062.26;107608;1274;74003;-78
2022/09/30 02:12:25;;;;;;;11.90;10.20;;;;;;;6.88;91.34;100067.27;107447;1274;62732;-79
2022/09/30 02:15:02;;;;;;;11.00;9.90;;;;;;;6.85;91.15;100068.30;107756;1274;61757;-79
2022/09/30 02:17:39;;;;;;;11.60;10.40;;;;;;;6.82;91.21;100068.10;107207;1274;77916;-79
2022/09/30 02:20:12;;;;;;;11.60;10.10;;;;;;;6.80;91.32;100070.84;108147;1274;72920;-78
2022/09/30 02:22:47;;;;;;;11.20;10.00;;;;;;;6.77;91.36;100068.80;107624;1272;72569;-79
2022/09/30 02:25:21;;;;;;;12.50;10.40;;;;;;;6.74;91.41;100071.27;107272;1274;61417;-78
2022/09/30 02:27:55;;;;;;;12.90;10.30;;;;;;;6.71;91.25;100076.33;107843;1274;60312;-79
2022/09/30 02:30:22;;;;;;;14.10;10.30;;;;;;;6.68;91.61;100074.54;107421;1274;74664;-78
2022/09/30 02:33:14;;;;;;;11.70;10.40;;;;;;;6.67;91.54;100071.73;107599;1274;72146;-79
2022/09/30 02:35:49;;;;;;;12.80;10.90;;;;;;;6.64;91.82;100071.80;107282;1274;73741;-79
2022/09/30 02:38:19;;;;;;;12.20;10.90;;;;;;;6.64;92.18;100070.77;107420;1274;62437;-79
2022/09/30 02:40:51;;;;;;;11.70;10.30;;;;;;;6.62;92.44;100073.08;107838;1274;61251;-78
2022/09/30 02:43:19;;;;;;;12.60;10.20;;;;;;;6.62;92.64;100080.70;107863;1273;73885;-79
2022/09/30 02:46:10;;;;;;;12.60;10.30;;;;;;;6.61;92.40;100082.88;107651;1273;71312;-78
2022/09/30 02:48:51;;;;;;;14.50;10.60;;;;;;;6.61;92.48;100086.42;107368;1274;73134;-78
2022/09/30 02:51:34;;;;;;;10.70;9.60;;;;;;;6.59;92.99;100086.91;107466;1274;62330;-79
2022/09/30 02:54:20;;;;;;;11.70;9.80;;;;;;;6.59;93.13;100086.61;107687;1274;61733;-79
2022/09/30 02:57:05;;;;;;;12.70;9.70;;;;;;;6.59;93.16;100085.73;107331;1274;74622;-77
2022/09/30 02:59:32;;;;;;;10.30;9.10;;;;;;;6.61;93.74;100087.61;107074;1274;72498;-78
2022/09/30 03:01:59;;;;;;;11.10;8.80;;;;;;;6.62;93.34;100091.02;107791;1274;74320;-78
2022/09/30 03:04:29;;;;;;;12.20;8.50;;;;;;;6.63;93.75;100091.62;107831;1274;61402;-78
2022/09/30 03:06:56;;;;;;;9.00;8.10;;;;;;;6.65;93.47;100092.13;107653;1274;60327;-78
2022/09/30 03:09:25;;;;;;;9.50;8.20;;;;;;;6.67;93.45;100097.04;107530;1274;74945;-79
2022/09/30 03:12:00;;;;;;;10.10;8.40;;;;;;;6.66;93.68;100096.86;107520;1274;72144;-79
2022/09/30 03:14:44;;;;;;;9.00;8.10;;;;;;;6.68;93.96;100103.69;107330;1273;74138;-78
2022/09/30 03:17:37;;;;;;;8.60;7.60;;;;;;;6.70;93.59;100106.83;108027;1273;61473;-78
2022/09/30 03:20:24;;;;;;;10.00;7.90;;;;;;;6.72;93.52;100106.30;107573;1273;61175;-78
2022/09/30 03:23:02;;;;;;;8.30;7.50;;;;;;;6.73;93.43;100107.98;107928;1274;75499;-79
2022/09/30 03:25:57;;;;;;;11.10;8.10;;;;;;;6.74;93.47;100111.73;107742;1274;72496;-79
2022/09/30 03:28:26;;;;;;;9.40;7.90;;;;;;;6.74;93.53;100120.14;107505;1272;73850;-79
2022/09/30 03:31:09;;;;;;;8.80;7.80;;;;;;;6.74;93.12;100124.89;107370;1274;62032;-79
2022/09/30 03:33:49;;;;;;;9.60;8.20;;;;;;;6.73;93.11;100123.55;107647;1274;62145;-79
2022/09/30 03:36:34;;;;;;;9.40;7.90;;;;;;;6.74;92.80;100118.35;107742;1273;75121;-78
2022/09/30 03:39:42;;;;;;;10.00;8.40;;;;;;;6.73;93.04;100118.62;107631;1273;71845;-78
2022/09/30 03:42:18;;;;;;;11.60;9.00;;;;;;;6.71;93.13;100113.82;107392;1274;72979;-78
2022/09/30 03:45:11;;;;;;;10.30;8.40;;;;;;;6.69;93.17;100117.20;107680;1274;61380;-78
2022/09/30 03:47:49;;;;;;;9.00;8.10;;;;;;;6.67;93.17;100118.39;107481;1274;61640;-78
2022/09/30 03:50:21;;;;;;;11.20;8.90;;;;;;;6.67;93.37;100118.11;107247;1274;76053;-78
2022/09/30 03:52:48;;;;;;;10.30;8.30;;;;;;;6.65;93.35;100118.08;107996;1274;72854;-78
2022/09/30 03:55:16;;;;;;;11.30;9.10;;;;;;;6.64;93.22;100125.23;107264;1274;73662;-78
2022/09/30 03:57:43;;;;;;;11.50;8.70;;;;;;;6.63;93.29;100127.97;107703;1274;62167;-78
2022/09/30 04:00:11;;;;;;;10.10;9.10;;;;;;;6.62;93.29;100126.52;107518;1274;60693;-78
2022/09/30 04:02:38;;;;;;;10.50;8.70;;;;;;;6.62;93.21;100132.52;107602;1274;75867;-78
2022/09/30 04:05:05;;;;;;;9.70;8.40;;;;;;;6.61;93.15;100130.49;107547;1274;72053;-78
2022/09/30 04:07:32;;;;;;;10.30;8.80;;;;;;;6.60;93.15;100133.96;107558;1274;73891;-78
2022/09/30 04:09:59;;;;;;;13.80;9.40;;;;;;;6.59;93.35;100135.60;107729;1274;62137;-79
2022/09/30 04:12:27;;;;;;;10.30;9.00;;;;;;;6.58;93.40;100142.38;107760;1274;59301;-78
2022/09/30 04:14:54;;;;;;;11.70;9.00;;;;;;;6.58;93.58;100141.94;107440;1274;74694;-78
2022/09/30 04:17:21;;;;;;;12.00;9.50;;;;;;;6.58;93.74;100145.98;108191;1274;72890;-78
2022/09/30 04:19:48;;;;;;;11.10;9.00;;;;;;;6.57;93.69;100150.06;107606;1274;74024;-77
2022/09/30 04:22:15;;;;;;;11.10;9.70;;;;;;;6.57;93.44;100150.95;107572;1274;62875;-78
2022/09/30 04:24:42;;;;;;;11.80;9.20;;;;;;;6.57;93.53;100156.38;107149;1274;61358;-77
2022/09/30 04:27:09;;;;;;;12.00;9.60;;;;;;;6.57;93.54;100154.14;106926;1274;75185;-79
2022/09/30 04:29:36;;;;;;;11.00;9.10;;;;;;;6.57;93.42;100156.55;107731;1274;71357;-78
2022/09/30 04:32:03;;;;;;;12.00;9.60;;;;;;;6.56;93.59;100158.59;107107;1274;73879;-78
2022/09/30 04:34:30;;;;;;;10.90;9.20;;;;;;;6.55;93.80;100160.45;107630;1274;61800;-78
2022/09/30 04:36:57;;;;;;;10.80;9.30;;;;;;;6.55;93.67;100159.23;107724;1274;61681;-78
2022/09/30 04:39:24;;;;;;;13.00;9.60;;;;;;;6.56;93.75;100162.35;107502;1273;76392;-78
2022/09/30 04:41:52;;;;;;;11.90;9.40;;;;;;;6.56;93.70;100165.30;107978;1271;71401;-78
2022/09/30 04:44:20;;;;;;;12.60;10.00;;;;;;;6.55;93.79;100166.77;107172;1273;72916;-78
2022/09/30 04:46:47;;;;;;;11.60;10.40;;;;;;;6.57;93.71;100169.59;107443;1274;61471;-78
2022/09/30 04:49:14;;;;;;;10.90;9.40;;;;;;;6.56;93.65;100169.86;107382;1274;61909;-78
2022/09/30 04:51:44;;;;;;;10.60;9.50;;;;;;;6.55;93.25;100175.43;107567;1273;74028;-78
2022/09/30 04:54:12;;;;;;;10.80;9.70;;;;;;;6.53;92.63;100175.95;107641;1274;71450;-78
2022/09/30 04:56:39;;;;;;;10.50;9.40;;;;;;;6.51;92.54;100173.35;107648;1274;72901;-78
2022/09/30 04:59:05;;;;;;;10.60;9.40;;;;;;;6.47;92.27;100179.19;106975;1275;62748;-78
2022/09/30 05:01:32;;;;;;;12.10;9.60;;;;;;;6.43;92.36;100177.66;107684;1273;61671;-79
2022/09/30 05:03:59;;;;;;;12.20;9.40;;;;;;;6.38;92.03;100186.31;107487;1274;75600;-78
2022/09/30 05:06:26;;;;;;;13.00;11.20;;;;;;;6.34;92.26;100186.89;107896;1274;71405;-78
2022/09/30 05:08:53;;;;;;;13.30;10.50;;;;;;;6.32;92.45;100189.89;107608;1274;73208;-75
2022/09/30 05:11:21;;;;;;;12.90;10.70;;;;;;;6.32;92.92;100186.89;107672;1274;59844;-74
2022/09/30 05:13:49;;;;;;;13.00;10.60;;;;;;;6.33;92.99;100188.08;107258;1274;61339;-75
2022/09/30 05:16:17;;;;;;;11.70;10.40;;;;;;;6.33;92.92;100190.65;107992;1274;74910;-75
2022/09/30 05:18:47;;;;;;;13.60;10.40;;;;;;;6.33;92.77;100197.66;107677;1274;71502;-75
2022/09/30 05:21:16;;;;;;;13.10;11.20;;;;;;;6.33;92.68;100198.09;106819;1274;74200;-74
2022/09/30 05:23:43;;;;;;;13.00;11.00;;;;;;;6.32;92.92;100198.16;107336;1274;62363;-73
2022/09/30 05:26:10;;;;;;;16.20;11.40;;;;;;;6.32;92.88;100200.27;107656;1273;60491;-74
2022/09/30 05:28:39;;;;;;;12.30;10.80;;;;;;;6.32;93.10;100198.64;108032;1274;76019;-75
2022/09/30 05:31:10;;;;;;;13.00;11.50;;;;;;;6.33;93.21;100205.96;107039;1274;70066;-74
2022/09/30 05:33:38;;;;;;;14.80;12.30;;;;;;;6.34;93.22;100209.19;107578;1274;74030;-74
2022/09/30 05:36:12;;;;;;;14.30;12.30;;;;;;;6.36;93.63;100212.30;107676;1274;61966;-74
2022/09/30 05:38:39;;;;;;;15.00;11.80;;;;;;;6.39;93.89;100215.67;107424;1274;61170;-74
2022/09/30 05:41:13;;;;;;;14.20;11.50;;;;;;;6.42;93.71;100216.23;107870;1274;74990;-74
2022/09/30 05:43:40;;;;;;;14.50;11.40;;;;;;;6.46;93.63;100222.80;107357;1274;71350;-74
2022/09/30 05:46:10;;;;;;;16.10;11.90;;;;;;;6.51;93.61;100227.48;108033;1274;72823;-75
2022/09/30 05:48:38;;;;;;;13.60;11.50;;;;;;;6.56;93.46;100231.19;107210;1273;61441;-74
2022/09/30 05:51:05;;;;;;;13.50;11.40;;;;;;;6.59;93.29;100229.95;107202;1274;61503;-73
2022/09/30 05:53:40;;;;;;;14.10;11.50;;;;;;;6.64;93.16;100230.70;107796;1274;76240;-74
2022/09/30 05:56:10;;;;;;;14.00;11.60;;;;;;;6.67;93.25;100232.80;107389;1274;71606;-74
2022/09/30 05:58:39;;;;;;;13.30;10.90;;;;;;;6.70;93.28;100237.03;107714;1274;73878;-73
2022/09/30 06:01:11;;;;;;;14.70;10.50;;;;;;;6.74;93.26;100238.17;107653;1274;62766;-73
2022/09/30 06:03:41;;;;;;;14.40;11.20;;;;;;;6.80;93.14;100238.87;107725;1274;60601;-73
2022/09/30 06:06:11;;;;;;;14.10;10.80;;;;;;;6.85;92.87;100244.67;107810;1274;76105;-73
2022/09/30 06:08:39;;;;;;;14.20;10.90;;;;;;;6.89;93.01;100248.55;107262;1274;72706;-73
2022/09/30 06:11:17;;;;;;;13.80;10.40;;;;;;;6.96;92.79;100256.63;107362;1274;71663;-73
2022/09/30 06:13:46;;;;;;;13.20;10.70;;;;;;;7.05;92.62;100257.34;107689;1274;62807;-73
2022/09/30 06:16:13;;;;;;;13.80;10.50;;;;;;;7.12;92.43;100261.50;107375;1274;60430;-74
2022/09/30 06:18:40;;;;;;;11.50;10.10;;;;;;;7.19;92.34;100263.67;107834;1275;76218;-75
2022/09/30 06:21:12;;;;;;;11.40;10.20;;;;;;;7.28;92.14;100269.95;107594;1274;72149;-76
2022/09/30 06:23:40;;;;;;;12.70;10.00;;;;;;;7.39;91.83;100272.55;107502;1274;73224;-76
2022/09/30 06:26:11;;;;;;;14.10;10.60;;;;;;;7.46;91.73;100273.36;107659;1274;61189;-77
2022/09/30 06:28:38;;;;;;;12.60;10.30;;;;;;;7.51;91.34;100273.33;107557;1274;61293;-77
2022/09/30 06:31:05;;;;;;;11.60;9.80;;;;;;;7.57;91.03;100276.56;107488;1276;75987;-76
2022/09/30 06:33:41;;;;;;;12.90;10.00;;;;;;;7.63;90.72;100281.48;107731;1274;70454;-77
2022/09/30 06:36:11;;;;;;;11.50;9.90;;;;;;;7.68;90.25;100284.88;107537;1274;72953;-77
2022/09/30 06:38:39;;;;;;;10.70;9.30;;;;;;;7.71;89.73;100283.98;107920;1274;60885;-77
2022/09/30 06:41:09;;;;;;;14.40;9.50;;;;;;;7.77;90.03;100287.23;107152;1273;62146;-76
2022/09/30 06:43:36;;;;;;;10.30;9.00;;;;;;;7.83;89.81;100292.55;107250;1276;75443;-76
2022/09/30 06:46:11;;;;;;;11.10;8.80;;;;;;;7.92;89.79;100290.40;107753;1274;70138;-77
2022/09/30 06:48:46;;;;;;;12.00;8.80;;;;;;;8.00;89.80;100289.98;107441;1274;71948;-76
2022/09/30 06:51:12;;;;;;;10.70;9.30;;;;;;;8.07;89.17;100294.13;107541;1274;61223;-76
2022/09/30 06:53:40;;;;;;;11.10;9.50;;;;;;;8.13;88.65;100291.54;107473;1274;61272;-76
2022/09/30 06:56:10;;;;;;;12.20;9.10;;;;;;;8.17;88.35;100296.75;107897;1274;75216;-76
2022/09/30 06:58:38;;;;;;;11.00;9.10;;;;;;;8.25;88.10;100297.97;107332;1274;70863;-77
2022/09/30 07:01:05;;;;;;;11.00;9.60;;;;;;;8.32;87.72;100292.48;107710;1276;72899;-76
2022/09/30 07:03:35;;;;;;;10.70;8.40;;;;;;;8.41;87.76;100290.13;107523;1274;61158;-76
2022/09/30 07:06:04;;;;;;;10.80;8.60;;;;;;;8.49;87.28;100294.54;107422;1274;61592;-76
2022/09/30 07:08:32;;;;;;;10.90;8.60;;;;;;;8.56;86.86;100297.59;107653;1274;76053;-76
2022/09/30 07:11:10;;;;;;;10.90;8.30;;;;;;;8.63;85.87;100304.09;107296;1274;71211;-75
2022/09/30 07:13:38;;;;;;;9.70;8.70;;;;;;;8.71;85.45;100305.31;107668;1274;72679;-76
2022/09/30 07:16:05;;;;;;;9.80;8.30;;;;;;;8.79;85.62;100306.80;107588;1274;62781;-75
2022/09/30 07:18:42;;;;;;;9.90;8.80;;;;;;;8.89;85.37;100307.08;107914;1272;60284;-76
2022/09/30 07:21:14;;;;;;;10.20;8.60;;;;;;;8.97;84.83;100308.86;107278;1274;75650;-76
2022/09/30 07:23:46;;;;;;;11.40;8.40;;;;;;;9.09;84.77;100308.09;107096;1274;72189;-76
2022/09/30 07:26:15;;;;;;;10.50;8.40;;;;;;;9.20;84.56;100307.70;107468;1274;73990;-77
2022/09/30 07:28:42;;;;;;;9.40;8.30;;;;;;;9.28;83.91;100310.83;107826;1274;61433;-76
2022/09/30 07:31:15;;;;;;;9.10;8.10;;;;;;;9.39;83.93;100312.33;108131;1273;61461;-77
2022/09/30 07:34:01;;;;;;;10.70;8.40;;;;;;;9.49;82.75;100315.17;107288;1274;76123;-76
2022/09/30 07:36:31;;;;;;;8.60;7.70;;;;;;;9.59;82.96;100318.77;107901;1274;72135;-76
2022/09/30 07:39:04;;;;;;;9.50;8.00;;;;;;;9.70;82.61;100324.86;107438;1273;74080;-77
2022/09/30 07:41:33;;;;;;;8.80;7.60;;;;;;;9.85;82.57;100322.30;107431;1274;62435;-76
2022/09/30 07:44:01;;;;;;;9.80;8.40;;;;;;;9.97;81.74;100319.72;107333;1274;61909;-76
2022/09/30 07:46:30;;;;;;;10.50;8.10;;;;;;;10.11;81.58;100318.70;107326;1274;74195;-76
2022/09/30 07:49:04;;;;;;;9.60;7.90;;;;;;;10.27;81.61;100317.92;107855;1274;70498;-77
2022/09/30 07:51:39;;;;;;;9.60;8.00;;;;;;;10.43;81.33;100318.83;106888;1276;72055;-76
2022/09/30 07:54:13;;;;;;;8.60;7.70;;;;;;;10.55;79.88;100319.31;107523;1274;63553;-77
2022/09/30 07:56:42;;;;;;;8.20;7.30;;;;;;;10.64;79.25;100319.27;107675;1274;60614;-75
2022/09/30 07:59:30;;;;;;;10.90;7.60;;;;;;;10.78;79.88;100318.01;107419;1274;76773;-74
2022/09/30 08:01:57;;;;;;;9.00;6.90;;;;;;;10.91;80.00;100321.16;107242;1274;69599;-75
2022/09/30 08:04:25;;;;;;;8.20;7.00;;;;;;;11.05;79.70;100324.05;107721;1273;72959;-74
2022/09/30 08:06:55;;;;;;;9.00;7.60;;;;;;;11.21;79.50;100323.20;107510;1274;62049;-74
2022/09/30 08:09:23;;;;;;;10.50;7.20;;;;;;;11.32;77.96;100324.90;107307;1274;61550;-75
2022/09/30 08:11:50;;;;;;;9.30;7.30;;;;;;;11.44;78.23;100324.23;107483;1274;76639;-75
2022/09/30 08:14:22;;;;;;;7.90;7.10;;;;;;;11.57;77.82;100326.16;107489;1272;71215;-74
2022/09/30 08:16:50;;;;;;;8.00;7.00;;;;;;;11.67;76.59;100322.63;107418;1274;74090;-75
2022/09/30 08:19:22;;;;;;;8.60;7.50;;;;;;;11.78;76.89;100324.64;107390;1273;61948;-75
2022/09/30 08:21:51;;;;;;;8.50;6.70;;;;;;;11.91;76.78;100328.06;107801;1272;59464;-74
2022/09/30 08:24:19;;;;;;;8.70;7.10;;;;;;;12.03;76.28;100327.96;107577;1274;73078;-74
2022/09/30 08:26:46;;;;;;;8.00;7.20;;;;;;;12.13;75.41;100328.23;107536;1274;71759;-75
2022/09/30 08:29:13;;;;;;;8.80;7.00;;;;;;;12.24;75.37;100329.01;106916;1276;73522;-74
2022/09/30 08:31:55;;;;;;;9.10;7.10;;;;;;;12.34;73.82;100332.55;107889;1276;63611;-73
2022/09/30 08:34:22;;;;;;;9.40;7.50;;;;;;;12.41;73.05;100333.56;107190;1274;61467;-73
2022/09/30 08:36:49;;;;;;;7.70;6.70;;;;;;;12.48;72.33;100333.90;107451;1274;75978;-74
2022/09/30 08:39:16;;;;;;;8.50;7.60;;;;;;;12.56;72.00;100335.58;107408;1274;59474;-72
2022/09/30 08:42:00;;;;;;;8.30;7.10;;;;;;;12.62;71.57;100339.79;107211;1274;72595;-74
2022/09/30 08:44:47;;;;;;;8.00;6.80;;;;;;;12.68;70.99;100340.39;107963;1274;62538;-74
2022/09/30 08:47:55;;;;;;;9.00;7.40;;;;;;;12.73;70.62;100339.76;107464;1274;60499;-75
2022/09/30 08:50:40;;;;;;;8.30;7.30;;;;;;;12.81;70.22;100339.67;107715;1274;74652;-74
2022/09/30 08:53:20;;;;;;;8.20;6.60;;;;;;;12.91;70.52;100343.69;107652;1274;71572;-74
2022/09/30 08:55:47;;;;;;;8.00;6.70;;;;;;;13.02;70.05;100349.30;107160;1274;74437;-73
2022/09/30 08:58:23;;;;;;;8.30;6.70;;;;;;;13.14;70.15;100349.58;107638;1274;63403;-74
2022/09/30 09:00:57;;;;;;;8.00;6.80;;;;;;;13.28;69.73;100353.57;107633;1273;60685;-73
2022/09/30 09:03:29;;;;;;;10.00;8.40;;;;;;;13.37;68.60;100353.83;107561;1274;74056;-74
2022/09/30 09:06:12;;;;;;;8.70;7.20;;;;;;;13.48;68.57;100350.85;107651;1274;71757;-75
2022/09/30 09:09:08;;;;;;;7.30;6.00;;;;;;;13.65;69.12;100352.39;107750;1274;74260;-73
2022/09/30 09:11:55;;;;;;;7.50;5.70;;;;;;;13.78;67.95;100352.94;107403;1274;62499;-73
2022/09/30 09:14:36;;;;;;;6.70;5.30;;;;;;;13.86;66.99;100354.28;107179;1274;61118;-74
2022/09/30 09:17:23;;;;;;;7.00;5.80;;;;;;;13.88;66.72;100351.45;107510;1275;75553;-74
2022/09/30 09:20:00;;;;;;;8.10;6.10;;;;;;;13.99;66.87;100354.98;107063;1274;71137;-74
2022/09/30 09:22:29;;;;;;;7.00;5.30;;;;;;;14.09;65.97;100358.59;107899;1273;72635;-74
2022/09/30 09:24:57;;;;;;;7.20;5.30;;;;;;;14.15;65.28;100355.95;107842;1274;61315;-73
2022/09/30 09:27:45;;;;;;;6.20;5.30;;;;;;;14.26;65.97;100361.78;108050;1274;60434;-74
2022/09/30 09:30:17;;;;;;;6.60;5.20;;;;;;;14.35;65.94;100359.67;107488;1273;75511;-74
2022/09/30 09:32:50;;;;;;;6.00;4.90;;;;;;;14.44;65.95;100363.51;107867;1274;72323;-75
2022/09/30 09:35:24;;;;;;;6.20;4.70;;;;;;;14.53;66.10;100363.87;107841;1273;74068;-74
2022/09/30 09:41:10;;;;;;;7.40;6.00;;;;;;;14.65;65.12;100362.92;107259;1273;61073;-74
2022/09/30 09:44:13;;;;;;;9.20;6.10;;;;;;;14.71;64.24;100360.51;107972;1272;74665;-74
2022/09/30 09:46:47;;;;;;;8.20;6.20;;;;;;;14.76;64.16;100365.39;107889;1274;72500;-74
2022/09/30 09:49:19;;;;;;;7.50;5.80;;;;;;;14.82;64.10;100363.86;107315;1274;72959;-73
2022/09/30 09:52:05;;;;;;;8.60;6.40;;;;;;;14.87;64.17;100363.14;107063;1276;62837;-74
2022/09/30 09:54:41;;;;;;;8.30;6.30;;;;;;;14.92;62.48;100362.05;107943;1274;59460;-74
2022/09/30 09:57:10;;;;;;;7.80;6.10;;;;;;;14.95;61.53;100365.56;106939;1274;75020;-75
2022/09/30 09:59:52;;;;;;;9.00;7.20;;;;;;;14.96;60.81;100365.86;107372;1273;72368;-73
2022/09/30 10:02:30;;;;;;;6.20;5.50;;;;;;;14.95;59.82;100364.50;108133;1274;73956;-74
2022/09/30 10:05:02;;;;;;;7.10;6.30;;;;;;;15.01;60.60;100361.88;107661;1274;62697;-74
2022/09/30 10:07:31;;;;;;;8.10;5.60;;;;;;;15.11;60.94;100358.47;107386;1274;61359;-75
2022/09/30 10:10:16;;;;;;;9.00;6.70;;;;;;;15.18;60.13;100358.75;107403;1274;75545;-75
2022/09/30 10:12:49;;;;;;;8.10;6.30;;;;;;;15.20;60.70;100354.48;107459;1274;71155;-74
2022/09/30 10:15:25;;;;;;;7.20;6.40;;;;;;;15.33;60.60;100352.27;106960;1274;71518;-74
2022/09/30 10:17:57;;;;;;;9.20;6.30;;;;;;;15.34;59.27;100352.13;107287;1274;61400;-74
2022/09/30 10:20:32;;;;;;;8.80;5.90;;;;;;;15.38;58.90;100354.13;107341;1274;60617;-74
2022/09/30 10:23:06;;;;;;;7.70;6.70;;;;;;;15.44;59.26;100356.85;108057;1273;79451;-74
2022/09/30 10:25:33;;;;;;;7.80;6.60;;;;;;;15.56;58.87;100352.34;107501;1274;71682;-74
2022/09/30 10:28:21;;;;;;;10.30;6.80;;;;;;;15.61;57.34;100347.15;107316;1274;71767;-74
2022/09/30 10:31:10;;;;;;;6.80;6.00;;;;;;;15.63;57.11;100346.81;107281;1274;62147;-75
2022/09/30 10:33:44;;;;;;;9.90;6.50;;;;;;;15.66;57.24;100350.57;107361;1274;61266;-74
2022/09/30 10:36:20;;;;;;;7.70;6.80;;;;;;;15.71;57.63;100348.38;107038;1277;74683;-74
2022/09/30 10:39:07;;;;;;;8.60;6.50;;;;;;;15.84;58.02;100341.75;107633;1273;72346;-75
2022/09/30 10:41:37;;;;;;;10.10;6.40;;;;;;;15.93;57.60;100340.84;108045;1274;73057;-78
2022/09/30 10:44:13;;;;;;;7.90;7.00;;;;;;;16.03;57.07;100335.45;106951;1274;61889;-76
2022/09/30 10:46:42;;;;;;;8.70;7.30;;;;;;;16.17;56.83;100338.37;107302;1274;61169;-74
2022/09/30 10:49:19;;;;;;;11.00;8.70;;;;;;;16.18;55.43;100341.79;107482;1273;74616;-74
2022/09/30 10:51:46;;;;;;;9.10;7.10;;;;;;;16.19;55.96;100342.52;107217;1273;69047;-74
2022/09/30 10:54:38;;;;;;;8.00;6.30;;;;;;;16.27;55.81;100338.05;107160;1273;72672;-74
2022/09/30 10:57:14;;;;;;;8.30;6.90;;;;;;;16.32;54.83;100338.52;107271;1274;60784;-74
2022/09/30 10:59:42;;;;;;;8.40;7.20;;;;;;;16.30;54.99;100342.44;107715;1274;61274;-74
2022/09/30 11:02:16;;;;;;;7.80;6.90;;;;;;;16.38;55.39;100343.19;107542;1274;75269;-75
2022/09/30 11:04:55;;;;;;;9.60;8.30;;;;;;;16.45;54.91;100342.33;107465;1274;71532;-74
2022/09/30 11:07:31;;;;;;;10.60;8.00;;;;;;;16.51;55.10;100345.90;107632;1274;71273;-74
2022/09/30 11:10:22;;;;;;;10.60;9.50;;;;;;;16.55;54.33;100352.44;107355;1274;62269;-75
2022/09/30 11:13:03;;;;;;;12.20;9.40;;;;;;;16.64;54.44;100351.77;107430;1273;61698;-74
2022/09/30 11:15:51;;;;;;;10.10;9.10;;;;;;;16.66;52.29;100362.27;107431;1273;75899;-74
2022/09/30 11:18:28;;;;;;;11.00;9.80;;;;;;;16.70;52.18;100361.17;107402;1273;71451;-72
2022/09/30 11:21:01;;;;;;;12.30;10.20;;;;;;;16.74;53.78;100361.88;107779;1273;72284;-72
2022/09/30 11:23:36;;;;;;;10.30;9.20;;;;;;;16.77;53.19;100365.02;107537;1273;61320;-73
2022/09/30 11:26:24;;;;;;;10.90;9.30;;;;;;;16.84;53.67;100364.17;107473;1274;61585;-72
2022/09/30 11:29:07;;;;;;;11.50;10.10;;;;;;;16.93;52.04;100360.23;107316;1273;74684;-71
2022/09/30 11:32:06;;;;;;;11.20;10.10;;;;;;;17.05;52.10;100353.98;107251;1273;73506;-71
2022/09/30 11:35:01;;;;;;;10.80;9.80;;;;;;;17.15;52.69;100349.06;108069;1274;72838;-71
2022/09/30 11:37:31;;;;;;;12.40;10.20;;;;;;;16.96;53.15;100353.48;107436;1274;60401;-71
2022/09/30 11:40:21;;;;;;;11.90;10.10;;;;;;;16.87;54.50;100354.13;107689;1274;61500;-72
2022/09/30 11:43:01;;;;;;;11.80;10.10;;;;;;;16.74;55.02;100353.30;107381;1274;74856;-74
2022/09/30 11:46:10;;;;;;;12.10;10.00;;;;;;;16.58;55.39;100351.17;107733;1271;71964;-73
2022/09/30 11:48:58;;;;;;;11.80;10.50;;;;;;;16.40;53.72;100351.39;107203;1274;73337;-75
2022/09/30 11:51:53;;;;;;;9.30;7.40;;;;;;;16.54;52.80;100348.29;107067;1274;61128;-74
2022/09/30 11:54:42;;;;;;;16.20;9.70;;;;;;;16.81;52.20;100345.52;107324;1274;324613;-72